sensor_id;sensor_type;location;lat;lon;timestamp;P1;durP1;ratioP1;P2;durP2;ratioP2
57281;SDS011;43129;52.628;10.098;2023-07-24T00:01:11;6.75;;;5.55;;
57281;SDS011;43129;52.628;10.098;2023-07-24T00:03:36;8.82;;;6.00;;
57281;SDS011;43129;52.628;10.098;2023-07-24T00:06:02;7.32;;;5.05;;
57281;SDS011;43129;52.628;10.098;2023-07-24T00:08:28;18.83;;;13.57;;
57281;SDS011;43129;52.628;10.098;2023-07-24T00:10:55;9.75;;;7.82;;
57281;SDS011;43129;52.628;10.098;2023-07-24T00:13:21;6.70;;;5.72;;
57281;SDS011;43129;52.628;10.098;2023-07-24T00:15:47;8.10;;;5.97;;
57281;SDS011;43129;52.628;10.098;2023-07-24T00:18:12;6.05;;;4.57;;
57281;SDS011;43129;52.628;10.098;2023-07-24T00:20:43;6.10;;;4.40;;
57281;SDS011;43129;52.628;10.098;2023-07-24T00:23:08;7.30;;;5.43;;
57281;SDS011;43129;52.628;10.098;2023-07-24T00:25:34;7.30;;;5.40;;
57281;SDS011;43129;52.628;10.098;2023-07-24T00:28:00;6.50;;;5.50;;
57281;SDS011;43129;52.628;10.098;2023-07-24T00:30:27;5.43;;;4.38;;
57281;SDS011;43129;52.628;10.098;2023-07-24T00:32:53;5.63;;;4.55;;
57281;SDS011;43129;52.628;10.098;2023-07-24T00:35:19;5.35;;;4.30;;
57281;SDS011;43129;52.628;10.098;2023-07-24T00:37:44;5.13;;;4.07;;
57281;SDS011;43129;52.628;10.098;2023-07-24T00:40:10;6.85;;;4.82;;
57281;SDS011;43129;52.628;10.098;2023-07-24T00:42:38;4.32;;;3.92;;
57281;SDS011;43129;52.628;10.098;2023-07-24T00:45:04;5.97;;;4.45;;
57281;SDS011;43129;52.628;10.098;2023-07-24T00:47:31;4.20;;;3.75;;
57281;SDS011;43129;52.628;10.098;2023-07-24T00:49:59;6.40;;;4.20;;
57281;SDS011;43129;52.628;10.098;2023-07-24T00:52:25;6.05;;;4.50;;
57281;SDS011;43129;52.628;10.098;2023-07-24T00:54:53;5.60;;;4.38;;
57281;SDS011;43129;52.628;10.098;2023-07-24T00:57:19;4.35;;;3.83;;
57281;SDS011;43129;52.628;10.098;2023-07-24T00:59:45;4.75;;;4.30;;
57281;SDS011;43129;52.628;10.098;2023-07-24T01:02:13;5.88;;;4.68;;
57281;SDS011;43129;52.628;10.098;2023-07-24T01:04:41;4.18;;;3.65;;
57281;SDS011;43129;52.628;10.098;2023-07-24T01:07:07;5.28;;;4.10;;
57281;SDS011;43129;52.628;10.098;2023-07-24T01:09:32;5.18;;;4.10;;
57281;SDS011;43129;52.628;10.098;2023-07-24T01:12:05;4.35;;;3.95;;
57281;SDS011;43129;52.628;10.098;2023-07-24T01:14:46;4.35;;;3.85;;
57281;SDS011;43129;52.628;10.098;2023-07-24T01:17:19;6.20;;;4.07;;
57281;SDS011;43129;52.628;10.098;2023-07-24T01:19:52;4.97;;;4.05;;
57281;SDS011;43129;52.628;10.098;2023-07-24T01:27:30;4.97;;;4.50;;
57281;SDS011;43129;52.628;10.098;2023-07-24T01:29:58;6.15;;;4.65;;
57281;SDS011;43129;52.628;10.098;2023-07-24T01:32:23;5.10;;;4.55;;
57281;SDS011;43129;52.628;10.098;2023-07-24T01:34:50;4.72;;;4.32;;
57281;SDS011;43129;52.628;10.098;2023-07-24T01:37:20;5.25;;;4.30;;
57281;SDS011;43129;52.628;10.098;2023-07-24T01:39:49;6.00;;;4.60;;
57281;SDS011;43129;52.628;10.098;2023-07-24T01:42:18;5.53;;;4.90;;
57281;SDS011;43129;52.628;10.098;2023-07-24T01:44:50;5.55;;;5.00;;
57281;SDS011;43129;52.628;10.098;2023-07-24T01:47:17;5.15;;;4.65;;
57281;SDS011;43129;52.628;10.098;2023-07-24T01:49:42;5.57;;;5.07;;
57281;SDS011;43129;52.628;10.098;2023-07-24T01:52:10;6.10;;;5.50;;
57281;SDS011;43129;52.628;10.098;2023-07-24T01:54:36;5.32;;;4.85;;
57281;SDS011;43129;52.628;10.098;2023-07-24T01:57:01;7.78;;;5.97;;
57281;SDS011;43129;52.628;10.098;2023-07-24T01:59:30;6.05;;;4.82;;
57281;SDS011;43129;52.628;10.098;2023-07-24T02:01:55;5.95;;;5.30;;
57281;SDS011;43129;52.628;10.098;2023-07-24T02:04:21;6.18;;;5.13;;
57281;SDS011;43129;52.628;10.098;2023-07-24T02:06:50;5.78;;;5.25;;
57281;SDS011;43129;52.628;10.098;2023-07-24T02:09:17;6.43;;;5.82;;
57281;SDS011;43129;52.628;10.098;2023-07-24T02:11:43;6.78;;;6.10;;
57281;SDS011;43129;52.628;10.098;2023-07-24T02:14:09;8.18;;;6.60;;
57281;SDS011;43129;52.628;10.098;2023-07-24T02:16:37;6.22;;;5.65;;
57281;SDS011;43129;52.628;10.098;2023-07-24T02:19:05;6.88;;;6.15;;
57281;SDS011;43129;52.628;10.098;2023-07-24T02:21:33;6.57;;;5.95;;
57281;SDS011;43129;52.628;10.098;2023-07-24T02:23:59;7.75;;;6.45;;
57281;SDS011;43129;52.628;10.098;2023-07-24T02:26:30;7.18;;;6.53;;
57281;SDS011;43129;52.628;10.098;2023-07-24T02:28:55;7.40;;;6.70;;
57281;SDS011;43129;52.628;10.098;2023-07-24T02:31:21;6.43;;;5.80;;
57281;SDS011;43129;52.628;10.098;2023-07-24T02:33:48;6.78;;;6.07;;
57281;SDS011;43129;52.628;10.098;2023-07-24T02:36:14;7.20;;;6.38;;
57281;SDS011;43129;52.628;10.098;2023-07-24T02:38:40;7.28;;;6.45;;
57281;SDS011;43129;52.628;10.098;2023-07-24T02:41:08;7.25;;;6.50;;
57281;SDS011;43129;52.628;10.098;2023-07-24T02:43:34;7.22;;;6.53;;
57281;SDS011;43129;52.628;10.098;2023-07-24T02:46:00;9.43;;;7.32;;
57281;SDS011;43129;52.628;10.098;2023-07-24T02:48:28;9.43;;;6.85;;
57281;SDS011;43129;52.628;10.098;2023-07-24T02:50:54;7.80;;;7.00;;
57281;SDS011;43129;52.628;10.098;2023-07-24T02:53:25;7.63;;;6.85;;
57281;SDS011;43129;52.628;10.098;2023-07-24T02:55:51;8.02;;;6.95;;
57281;SDS011;43129;52.628;10.098;2023-07-24T02:58:18;8.77;;;7.70;;
57281;SDS011;43129;52.628;10.098;2023-07-24T03:00:44;8.65;;;6.90;;
57281;SDS011;43129;52.628;10.098;2023-07-24T03:03:10;8.20;;;7.40;;
57281;SDS011;43129;52.628;10.098;2023-07-24T03:05:37;8.73;;;7.72;;
57281;SDS011;43129;52.628;10.098;2023-07-24T03:08:03;8.02;;;7.25;;
57281;SDS011;43129;52.628;10.098;2023-07-24T03:10:29;8.27;;;7.53;;
57281;SDS011;43129;52.628;10.098;2023-07-24T03:12:54;10.82;;;8.32;;
57281;SDS011;43129;52.628;10.098;2023-07-24T03:15:20;8.68;;;7.85;;
57281;SDS011;43129;52.628;10.098;2023-07-24T03:17:46;9.02;;;7.90;;
57281;SDS011;43129;52.628;10.098;2023-07-24T03:20:16;9.40;;;8.25;;
57281;SDS011;43129;52.628;10.098;2023-07-24T03:22:45;9.70;;;8.35;;
57281;SDS011;43129;52.628;10.098;2023-07-24T03:25:16;9.43;;;8.43;;
57281;SDS011;43129;52.628;10.098;2023-07-24T03:27:43;10.75;;;8.90;;
57281;SDS011;43129;52.628;10.098;2023-07-24T03:30:09;9.45;;;8.45;;
57281;SDS011;43129;52.628;10.098;2023-07-24T03:32:37;9.70;;;8.77;;
57281;SDS011;43129;52.628;10.098;2023-07-24T03:35:08;10.70;;;9.15;;
57281;SDS011;43129;52.628;10.098;2023-07-24T03:37:34;8.65;;;7.85;;
57281;SDS011;43129;52.628;10.098;2023-07-24T03:40:00;8.45;;;7.63;;
57281;SDS011;43129;52.628;10.098;2023-07-24T03:42:27;9.13;;;8.13;;
57281;SDS011;43129;52.628;10.098;2023-07-24T03:44:55;8.50;;;7.63;;
57281;SDS011;43129;52.628;10.098;2023-07-24T03:47:21;9.25;;;7.57;;
57281;SDS011;43129;52.628;10.098;2023-07-24T03:49:47;7.70;;;6.90;;
57281;SDS011;43129;52.628;10.098;2023-07-24T03:52:13;8.48;;;7.57;;
57281;SDS011;43129;52.628;10.098;2023-07-24T03:54:38;9.68;;;8.68;;
57281;SDS011;43129;52.628;10.098;2023-07-24T03:57:06;9.32;;;7.93;;
57281;SDS011;43129;52.628;10.098;2023-07-24T03:59:32;9.77;;;8.40;;
57281;SDS011;43129;52.628;10.098;2023-07-24T04:01:58;9.60;;;8.57;;
57281;SDS011;43129;52.628;10.098;2023-07-24T04:04:23;7.97;;;7.18;;
57281;SDS011;43129;52.628;10.098;2023-07-24T04:06:51;8.90;;;7.53;;
57281;SDS011;43129;52.628;10.098;2023-07-24T04:09:17;8.77;;;7.97;;
57281;SDS011;43129;52.628;10.098;2023-07-24T04:11:45;8.57;;;7.57;;
57281;SDS011;43129;52.628;10.098;2023-07-24T04:14:11;9.20;;;7.20;;
57281;SDS011;43129;52.628;10.098;2023-07-24T04:16:39;14.13;;;8.43;;
57281;SDS011;43129;52.628;10.098;2023-07-24T04:19:04;10.65;;;8.23;;
57281;SDS011;43129;52.628;10.098;2023-07-24T04:21:30;7.53;;;6.82;;
57281;SDS011;43129;52.628;10.098;2023-07-24T04:23:56;8.00;;;7.20;;
57281;SDS011;43129;52.628;10.098;2023-07-24T04:26:21;7.82;;;7.03;;
57281;SDS011;43129;52.628;10.098;2023-07-24T04:28:50;8.35;;;7.50;;
57281;SDS011;43129;52.628;10.098;2023-07-24T04:31:15;8.77;;;7.18;;
57281;SDS011;43129;52.628;10.098;2023-07-24T04:33:43;7.18;;;6.47;;
57281;SDS011;43129;52.628;10.098;2023-07-24T04:36:08;7.82;;;6.22;;
57281;SDS011;43129;52.628;10.098;2023-07-24T04:38:34;7.78;;;6.55;;
57281;SDS011;43129;52.628;10.098;2023-07-24T04:41:02;6.35;;;5.75;;
57281;SDS011;43129;52.628;10.098;2023-07-24T04:43:28;6.15;;;5.57;;
57281;SDS011;43129;52.628;10.098;2023-07-24T04:45:56;6.20;;;5.60;;
57281;SDS011;43129;52.628;10.098;2023-07-24T04:48:26;8.32;;;5.93;;
57281;SDS011;43129;52.628;10.098;2023-07-24T04:50:55;5.78;;;5.05;;
57281;SDS011;43129;52.628;10.098;2023-07-24T04:53:21;6.63;;;5.75;;
57281;SDS011;43129;52.628;10.098;2023-07-24T04:55:47;6.57;;;5.97;;
57281;SDS011;43129;52.628;10.098;2023-07-24T04:58:13;6.10;;;5.50;;
57281;SDS011;43129;52.628;10.098;2023-07-24T05:00:38;9.35;;;5.60;;
57281;SDS011;43129;52.628;10.098;2023-07-24T05:03:07;6.82;;;6.13;;
57281;SDS011;43129;52.628;10.098;2023-07-24T05:05:36;6.45;;;5.85;;
57281;SDS011;43129;52.628;10.098;2023-07-24T05:08:05;6.35;;;5.72;;
57281;SDS011;43129;52.628;10.098;2023-07-24T05:10:34;6.05;;;5.53;;
57281;SDS011;43129;52.628;10.098;2023-07-24T05:13:03;6.85;;;5.35;;
57281;SDS011;43129;52.628;10.098;2023-07-24T05:15:30;5.70;;;5.20;;
57281;SDS011;43129;52.628;10.098;2023-07-24T05:17:56;27.67;;;21.90;;
57281;SDS011;43129;52.628;10.098;2023-07-24T05:20:24;8.40;;;5.97;;
57281;SDS011;43129;52.628;10.098;2023-07-24T05:22:52;6.35;;;5.50;;
57281;SDS011;43129;52.628;10.098;2023-07-24T05:25:22;8.18;;;4.88;;
57281;SDS011;43129;52.628;10.098;2023-07-24T05:27:48;6.60;;;5.45;;
57281;SDS011;43129;52.628;10.098;2023-07-24T05:30:14;5.60;;;5.05;;
57281;SDS011;43129;52.628;10.098;2023-07-24T05:32:40;6.80;;;4.97;;
57281;SDS011;43129;52.628;10.098;2023-07-24T05:35:08;6.80;;;4.80;;
57281;SDS011;43129;52.628;10.098;2023-07-24T05:37:36;5.45;;;4.40;;
57281;SDS011;43129;52.628;10.098;2023-07-24T05:40:05;5.13;;;4.63;;
57281;SDS011;43129;52.628;10.098;2023-07-24T05:42:31;5.82;;;4.65;;
57281;SDS011;43129;52.628;10.098;2023-07-24T05:44:56;6.97;;;3.97;;
57281;SDS011;43129;52.628;10.098;2023-07-24T05:47:22;4.25;;;3.85;;
57281;SDS011;43129;52.628;10.098;2023-07-24T05:49:50;4.22;;;3.40;;
57281;SDS011;43129;52.628;10.098;2023-07-24T05:52:16;5.88;;;3.75;;
57281;SDS011;43129;52.628;10.098;2023-07-24T05:54:41;4.78;;;3.28;;
57281;SDS011;43129;52.628;10.098;2023-07-24T05:57:07;3.70;;;3.25;;
57281;SDS011;43129;52.628;10.098;2023-07-24T05:59:32;3.05;;;2.75;;
57281;SDS011;43129;52.628;10.098;2023-07-24T06:02:01;5.40;;;3.05;;
57281;SDS011;43129;52.628;10.098;2023-07-24T06:04:26;5.75;;;3.15;;
57281;SDS011;43129;52.628;10.098;2023-07-24T06:06:52;6.18;;;3.20;;
57281;SDS011;43129;52.628;10.098;2023-07-24T06:09:20;5.00;;;3.35;;
57281;SDS011;43129;52.628;10.098;2023-07-24T06:11:45;3.70;;;3.08;;
57281;SDS011;43129;52.628;10.098;2023-07-24T06:14:11;3.90;;;2.80;;
57281;SDS011;43129;52.628;10.098;2023-07-24T06:16:37;6.07;;;2.78;;
57281;SDS011;43129;52.628;10.098;2023-07-24T06:19:02;5.25;;;3.22;;
57281;SDS011;43129;52.628;10.098;2023-07-24T06:21:28;4.43;;;3.03;;
57281;SDS011;43129;52.628;10.098;2023-07-24T06:23:53;3.58;;;2.85;;
57281;SDS011;43129;52.628;10.098;2023-07-24T06:26:21;4.75;;;3.40;;
57281;SDS011;43129;52.628;10.098;2023-07-24T06:28:49;3.10;;;2.80;;
57281;SDS011;43129;52.628;10.098;2023-07-24T06:31:15;5.28;;;3.33;;
57281;SDS011;43129;52.628;10.098;2023-07-24T06:33:40;3.78;;;3.15;;
57281;SDS011;43129;52.628;10.098;2023-07-24T06:36:09;4.85;;;3.08;;
57281;SDS011;43129;52.628;10.098;2023-07-24T06:38:38;3.58;;;3.00;;
57281;SDS011;43129;52.628;10.098;2023-07-24T06:41:03;5.20;;;3.35;;
57281;SDS011;43129;52.628;10.098;2023-07-24T06:43:32;3.42;;;2.97;;
57281;SDS011;43129;52.628;10.098;2023-07-24T06:46:00;4.85;;;3.03;;
57281;SDS011;43129;52.628;10.098;2023-07-24T06:48:28;3.00;;;2.70;;
57281;SDS011;43129;52.628;10.098;2023-07-24T06:50:53;4.00;;;2.95;;
57281;SDS011;43129;52.628;10.098;2023-07-24T06:53:19;3.78;;;3.00;;
57281;SDS011;43129;52.628;10.098;2023-07-24T06:55:47;6.63;;;3.20;;
57281;SDS011;43129;52.628;10.098;2023-07-24T06:58:12;4.28;;;2.90;;
57281;SDS011;43129;52.628;10.098;2023-07-24T07:00:38;4.47;;;2.80;;
57281;SDS011;43129;52.628;10.098;2023-07-24T07:03:08;3.72;;;2.83;;
57281;SDS011;43129;52.628;10.098;2023-07-24T07:05:36;5.85;;;3.20;;
57281;SDS011;43129;52.628;10.098;2023-07-24T07:08:02;4.50;;;3.08;;
57281;SDS011;43129;52.628;10.098;2023-07-24T07:10:28;4.68;;;3.03;;
57281;SDS011;43129;52.628;10.098;2023-07-24T07:12:57;5.38;;;3.03;;
57281;SDS011;43129;52.628;10.098;2023-07-24T07:15:25;6.75;;;3.60;;
57281;SDS011;43129;52.628;10.098;2023-07-24T07:17:51;7.22;;;3.90;;
57281;SDS011;43129;52.628;10.098;2023-07-24T07:20:17;9.23;;;4.38;;
57281;SDS011;43129;52.628;10.098;2023-07-24T07:22:42;13.07;;;4.65;;
57281;SDS011;43129;52.628;10.098;2023-07-24T07:25:08;10.77;;;4.53;;
57281;SDS011;43129;52.628;10.098;2023-07-24T07:27:36;9.75;;;4.03;;
57281;SDS011;43129;52.628;10.098;2023-07-24T07:30:16;6.15;;;4.28;;
57281;SDS011;43129;52.628;10.098;2023-07-24T07:32:42;8.27;;;4.53;;
57281;SDS011;43129;52.628;10.098;2023-07-24T07:35:08;10.13;;;5.47;;
57281;SDS011;43129;52.628;10.098;2023-07-24T07:37:33;12.60;;;6.05;;
57281;SDS011;43129;52.628;10.098;2023-07-24T07:40:01;8.15;;;5.32;;
57281;SDS011;43129;52.628;10.098;2023-07-24T07:42:28;9.50;;;5.78;;
57281;SDS011;43129;52.628;10.098;2023-07-24T07:44:54;9.27;;;6.53;;
57281;SDS011;43129;52.628;10.098;2023-07-24T07:47:21;10.23;;;5.97;;
57281;SDS011;43129;52.628;10.098;2023-07-24T07:49:47;7.53;;;5.05;;
57281;SDS011;43129;52.628;10.098;2023-07-24T07:52:13;8.45;;;4.28;;
57281;SDS011;43129;52.628;10.098;2023-07-24T07:54:45;4.97;;;3.92;;
57281;SDS011;43129;52.628;10.098;2023-07-24T07:57:14;5.50;;;3.30;;
57281;SDS011;43129;52.628;10.098;2023-07-24T07:59:42;5.20;;;3.70;;
57281;SDS011;43129;52.628;10.098;2023-07-24T08:02:08;5.70;;;3.90;;
57281;SDS011;43129;52.628;10.098;2023-07-24T08:04:36;9.55;;;4.38;;
57281;SDS011;43129;52.628;10.098;2023-07-24T08:07:02;6.10;;;4.22;;
57281;SDS011;43129;52.628;10.098;2023-07-24T08:09:30;5.40;;;3.67;;
57281;SDS011;43129;52.628;10.098;2023-07-24T08:11:57;6.47;;;4.20;;
57281;SDS011;43129;52.628;10.098;2023-07-24T08:14:23;5.95;;;4.00;;
57281;SDS011;43129;52.628;10.098;2023-07-24T08:16:51;4.38;;;3.60;;
57281;SDS011;43129;52.628;10.098;2023-07-24T08:19:18;4.45;;;4.03;;
57281;SDS011;43129;52.628;10.098;2023-07-24T08:21:43;7.53;;;4.85;;
57281;SDS011;43129;52.628;10.098;2023-07-24T08:24:09;5.97;;;3.97;;
57281;SDS011;43129;52.628;10.098;2023-07-24T08:26:35;6.05;;;4.40;;
57281;SDS011;43129;52.628;10.098;2023-07-24T08:29:03;5.55;;;4.32;;
57281;SDS011;43129;52.628;10.098;2023-07-24T08:31:33;6.53;;;4.70;;
57281;SDS011;43129;52.628;10.098;2023-07-24T08:33:59;7.47;;;4.13;;
57281;SDS011;43129;52.628;10.098;2023-07-24T08:36:25;5.80;;;4.05;;
57281;SDS011;43129;52.628;10.098;2023-07-24T08:38:50;7.43;;;4.40;;
57281;SDS011;43129;52.628;10.098;2023-07-24T08:41:21;7.10;;;4.65;;
57281;SDS011;43129;52.628;10.098;2023-07-24T08:43:46;8.63;;;5.35;;
57281;SDS011;43129;52.628;10.098;2023-07-24T08:46:14;6.38;;;4.03;;
57281;SDS011;43129;52.628;10.098;2023-07-24T08:48:41;5.28;;;3.60;;
57281;SDS011;43129;52.628;10.098;2023-07-24T08:51:08;5.25;;;3.50;;
57281;SDS011;43129;52.628;10.098;2023-07-24T08:53:36;4.85;;;3.00;;
57281;SDS011;43129;52.628;10.098;2023-07-24T08:56:03;5.43;;;3.67;;
57281;SDS011;43129;52.628;10.098;2023-07-24T08:58:30;3.70;;;3.15;;
57281;SDS011;43129;52.628;10.098;2023-07-24T09:01:02;4.93;;;3.20;;
57281;SDS011;43129;52.628;10.098;2023-07-24T09:03:29;5.85;;;3.78;;
57281;SDS011;43129;52.628;10.098;2023-07-24T09:06:00;8.10;;;3.95;;
57281;SDS011;43129;52.628;10.098;2023-07-24T09:08:32;5.55;;;4.03;;
57281;SDS011;43129;52.628;10.098;2023-07-24T09:10:59;4.85;;;3.85;;
57281;SDS011;43129;52.628;10.098;2023-07-24T09:13:26;6.45;;;4.32;;
57281;SDS011;43129;52.628;10.098;2023-07-24T09:15:54;7.75;;;4.00;;
57281;SDS011;43129;52.628;10.098;2023-07-24T09:18:25;4.32;;;3.70;;
57281;SDS011;43129;52.628;10.098;2023-07-24T09:20:53;4.88;;;4.15;;
57281;SDS011;43129;52.628;10.098;2023-07-24T09:23:27;5.68;;;3.92;;
57281;SDS011;43129;52.628;10.098;2023-07-24T09:25:55;5.80;;;4.47;;
57281;SDS011;43129;52.628;10.098;2023-07-24T09:28:26;3.90;;;3.50;;
57281;SDS011;43129;52.628;10.098;2023-07-24T09:30:54;5.78;;;3.67;;
57281;SDS011;43129;52.628;10.098;2023-07-24T09:33:34;4.90;;;4.40;;
57281;SDS011;43129;52.628;10.098;2023-07-24T09:36:03;6.50;;;4.20;;
57281;SDS011;43129;52.628;10.098;2023-07-24T09:38:32;4.32;;;3.92;;
57281;SDS011;43129;52.628;10.098;2023-07-24T09:40:57;6.93;;;4.07;;
57281;SDS011;43129;52.628;10.098;2023-07-24T09:43:26;4.90;;;4.45;;
57281;SDS011;43129;52.628;10.098;2023-07-24T09:45:57;5.13;;;4.55;;
57281;SDS011;43129;52.628;10.098;2023-07-24T09:48:29;7.50;;;4.65;;
57281;SDS011;43129;52.628;10.098;2023-07-24T09:50:57;4.60;;;4.15;;
57281;SDS011;43129;52.628;10.098;2023-07-24T09:53:28;7.57;;;4.30;;
57281;SDS011;43129;52.628;10.098;2023-07-24T09:55:59;5.45;;;4.50;;
57281;SDS011;43129;52.628;10.098;2023-07-24T09:58:27;5.72;;;4.60;;
57281;SDS011;43129;52.628;10.098;2023-07-24T10:00:56;4.60;;;4.07;;
57281;SDS011;43129;52.628;10.098;2023-07-24T10:03:25;5.75;;;3.78;;
57281;SDS011;43129;52.628;10.098;2023-07-24T10:05:52;6.18;;;5.57;;
57281;SDS011;43129;52.628;10.098;2023-07-24T10:08:22;4.32;;;3.90;;
57281;SDS011;43129;52.628;10.098;2023-07-24T10:10:49;4.00;;;3.60;;
57281;SDS011;43129;52.628;10.098;2023-07-24T10:13:18;3.50;;;3.20;;
57281;SDS011;43129;52.628;10.098;2023-07-24T10:15:46;3.67;;;3.20;;
57281;SDS011;43129;52.628;10.098;2023-07-24T10:18:16;3.78;;;3.35;;
57281;SDS011;43129;52.628;10.098;2023-07-24T10:20:43;4.07;;;2.90;;
57281;SDS011;43129;52.628;10.098;2023-07-24T10:23:10;3.65;;;3.15;;
57281;SDS011;43129;52.628;10.098;2023-07-24T10:25:41;3.30;;;2.92;;
57281;SDS011;43129;52.628;10.098;2023-07-24T10:28:11;3.65;;;3.20;;
57281;SDS011;43129;52.628;10.098;2023-07-24T10:30:38;3.78;;;3.47;;
57281;SDS011;43129;52.628;10.098;2023-07-24T10:35:40;4.22;;;3.90;;
57281;SDS011;43129;52.628;10.098;2023-07-24T10:38:11;4.88;;;3.70;;
57281;SDS011;43129;52.628;10.098;2023-07-24T10:40:42;5.07;;;3.83;;
57281;SDS011;43129;52.628;10.098;2023-07-24T10:43:14;8.27;;;3.65;;
57281;SDS011;43129;52.628;10.098;2023-07-24T10:48:11;4.53;;;4.07;;
57281;SDS011;43129;52.628;10.098;2023-07-24T10:50:43;6.85;;;4.35;;
57281;SDS011;43129;52.628;10.098;2023-07-24T10:53:16;5.68;;;4.82;;
57281;SDS011;43129;52.628;10.098;2023-07-24T10:55:46;4.93;;;4.53;;
57281;SDS011;43129;52.628;10.098;2023-07-24T10:58:12;5.10;;;4.60;;
57281;SDS011;43129;52.628;10.098;2023-07-24T11:00:41;6.07;;;5.10;;
57281;SDS011;43129;52.628;10.098;2023-07-24T11:03:13;6.28;;;5.70;;
57281;SDS011;43129;52.628;10.098;2023-07-24T11:05:47;6.45;;;5.72;;
57281;SDS011;43129;52.628;10.098;2023-07-24T11:08:16;6.57;;;5.85;;
57281;SDS011;43129;52.628;10.098;2023-07-24T11:10:47;7.20;;;6.50;;
57281;SDS011;43129;52.628;10.098;2023-07-24T11:13:22;7.15;;;6.45;;
57281;SDS011;43129;52.628;10.098;2023-07-24T11:15:52;6.45;;;5.50;;
57281;SDS011;43129;52.628;10.098;2023-07-24T11:18:23;5.68;;;5.15;;
57281;SDS011;43129;52.628;10.098;2023-07-24T11:20:54;6.00;;;5.47;;
57281;SDS011;43129;52.628;10.098;2023-07-24T11:23:21;7.05;;;6.35;;
57281;SDS011;43129;52.628;10.098;2023-07-24T11:25:53;7.43;;;6.28;;
57281;SDS011;43129;52.628;10.098;2023-07-24T11:28:19;7.47;;;6.43;;
57281;SDS011;43129;52.628;10.098;2023-07-24T11:30:50;8.88;;;7.25;;
57281;SDS011;43129;52.628;10.098;2023-07-24T11:33:16;8.07;;;6.35;;
57281;SDS011;43129;52.628;10.098;2023-07-24T11:35:48;9.37;;;8.13;;
57281;SDS011;43129;52.628;10.098;2023-07-24T11:38:16;10.73;;;9.73;;
57281;SDS011;43129;52.628;10.098;2023-07-24T11:40:42;11.10;;;9.93;;
57281;SDS011;43129;52.628;10.098;2023-07-24T11:43:15;11.05;;;10.15;;
57281;SDS011;43129;52.628;10.098;2023-07-24T11:45:48;9.07;;;8.10;;
57281;SDS011;43129;52.628;10.098;2023-07-24T11:48:18;9.10;;;8.20;;
57281;SDS011;43129;52.628;10.098;2023-07-24T11:50:48;8.35;;;7.55;;
57281;SDS011;43129;52.628;10.098;2023-07-24T11:53:22;15.00;;;7.95;;
57281;SDS011;43129;52.628;10.098;2023-07-24T11:55:50;9.07;;;7.20;;
57281;SDS011;43129;52.628;10.098;2023-07-24T11:58:20;7.13;;;6.40;;
57281;SDS011;43129;52.628;10.098;2023-07-24T12:00:46;7.50;;;6.80;;
57281;SDS011;43129;52.628;10.098;2023-07-24T12:03:20;8.32;;;7.32;;
57281;SDS011;43129;52.628;10.098;2023-07-24T12:05:53;7.75;;;6.40;;
57281;SDS011;43129;52.628;10.098;2023-07-24T12:08:34;7.68;;;6.00;;
57281;SDS011;43129;52.628;10.098;2023-07-24T12:11:00;5.90;;;5.30;;
57281;SDS011;43129;52.628;10.098;2023-07-24T12:13:27;5.18;;;4.63;;
57281;SDS011;43129;52.628;10.098;2023-07-24T12:15:53;6.03;;;5.45;;
57281;SDS011;43129;52.628;10.098;2023-07-24T12:18:19;6.47;;;5.88;;
57281;SDS011;43129;52.628;10.098;2023-07-24T12:20:47;6.03;;;5.30;;
57281;SDS011;43129;52.628;10.098;2023-07-24T12:23:15;8.38;;;6.88;;
57281;SDS011;43129;52.628;10.098;2023-07-24T12:25:42;5.07;;;4.57;;
57281;SDS011;43129;52.628;10.098;2023-07-24T12:28:07;5.30;;;4.03;;
57281;SDS011;43129;52.628;10.098;2023-07-24T12:30:33;4.85;;;4.20;;
57281;SDS011;43129;52.628;10.098;2023-07-24T12:33:00;4.13;;;3.38;;
57281;SDS011;43129;52.628;10.098;2023-07-24T12:35:26;4.68;;;3.17;;
57281;SDS011;43129;52.628;10.098;2023-07-24T12:37:52;2.83;;;2.53;;
57281;SDS011;43129;52.628;10.098;2023-07-24T12:40:17;3.28;;;2.97;;
57281;SDS011;43129;52.628;10.098;2023-07-24T12:42:43;4.03;;;2.80;;
57281;SDS011;43129;52.628;10.098;2023-07-24T12:45:08;2.47;;;2.10;;
57281;SDS011;43129;52.628;10.098;2023-07-24T12:47:37;2.38;;;2.17;;
57281;SDS011;43129;52.628;10.098;2023-07-24T12:50:05;4.35;;;2.85;;
57281;SDS011;43129;52.628;10.098;2023-07-24T12:52:33;3.25;;;2.85;;
57281;SDS011;43129;52.628;10.098;2023-07-24T12:54:59;3.53;;;2.65;;
57281;SDS011;43129;52.628;10.098;2023-07-24T12:57:24;3.28;;;2.95;;
57281;SDS011;43129;52.628;10.098;2023-07-24T12:59:52;3.22;;;2.92;;
57281;SDS011;43129;52.628;10.098;2023-07-24T13:02:18;3.33;;;3.03;;
57281;SDS011;43129;52.628;10.098;2023-07-24T13:04:44;4.03;;;3.63;;
57281;SDS011;43129;52.628;10.098;2023-07-24T13:07:12;4.35;;;3.72;;
57281;SDS011;43129;52.628;10.098;2023-07-24T13:09:37;4.75;;;3.80;;
57281;SDS011;43129;52.628;10.098;2023-07-24T13:12:03;6.18;;;3.42;;
57281;SDS011;43129;52.628;10.098;2023-07-24T13:14:29;5.25;;;4.35;;
57281;SDS011;43129;52.628;10.098;2023-07-24T13:16:55;4.50;;;4.10;;
57281;SDS011;43129;52.628;10.098;2023-07-24T13:19:20;4.82;;;4.32;;
57281;SDS011;43129;52.628;10.098;2023-07-24T13:21:46;5.00;;;4.22;;
57281;SDS011;43129;52.628;10.098;2023-07-24T13:24:16;4.70;;;4.20;;
57281;SDS011;43129;52.628;10.098;2023-07-24T13:26:44;5.07;;;3.88;;
57281;SDS011;43129;52.628;10.098;2023-07-24T13:29:10;5.18;;;4.47;;
57281;SDS011;43129;52.628;10.098;2023-07-24T13:31:36;5.25;;;4.65;;
57281;SDS011;43129;52.628;10.098;2023-07-24T13:34:05;5.95;;;4.60;;
57281;SDS011;43129;52.628;10.098;2023-07-24T13:36:34;5.05;;;4.30;;
57281;SDS011;43129;52.628;10.098;2023-07-24T13:38:59;5.03;;;4.53;;
57281;SDS011;43129;52.628;10.098;2023-07-24T13:41:26;4.78;;;4.28;;
57281;SDS011;43129;52.628;10.098;2023-07-24T13:43:51;4.10;;;3.70;;
57281;SDS011;43129;52.628;10.098;2023-07-24T13:46:17;4.93;;;4.10;;
57281;SDS011;43129;52.628;10.098;2023-07-24T13:48:45;4.88;;;4.45;;
57281;SDS011;43129;52.628;10.098;2023-07-24T13:51:13;5.88;;;4.20;;
57281;SDS011;43129;52.628;10.098;2023-07-24T13:53:41;5.00;;;4.00;;
57281;SDS011;43129;52.628;10.098;2023-07-24T13:56:11;5.25;;;3.70;;
57281;SDS011;43129;52.628;10.098;2023-07-24T13:58:36;5.35;;;3.33;;
57281;SDS011;43129;52.628;10.098;2023-07-24T14:01:02;4.30;;;3.90;;
57281;SDS011;43129;52.628;10.098;2023-07-24T14:03:32;4.60;;;4.13;;
57281;SDS011;43129;52.628;10.098;2023-07-24T14:05:58;4.95;;;4.10;;
57281;SDS011;43129;52.628;10.098;2023-07-24T14:08:23;4.35;;;3.95;;
57281;SDS011;43129;52.628;10.098;2023-07-24T14:10:51;6.07;;;4.05;;
57281;SDS011;43129;52.628;10.098;2023-07-24T14:13:17;5.13;;;4.63;;
57281;SDS011;43129;52.628;10.098;2023-07-24T14:15:42;4.78;;;4.28;;
57281;SDS011;43129;52.628;10.098;2023-07-24T14:18:10;4.07;;;3.67;;
57281;SDS011;43129;52.628;10.098;2023-07-24T14:20:36;5.47;;;4.35;;
57281;SDS011;43129;52.628;10.098;2023-07-24T14:23:04;7.50;;;4.47;;
57281;SDS011;43129;52.628;10.098;2023-07-24T14:25:32;5.63;;;5.03;;
57281;SDS011;43129;52.628;10.098;2023-07-24T14:27:58;6.28;;;4.45;;
57281;SDS011;43129;52.628;10.098;2023-07-24T14:30:27;5.03;;;4.45;;
57281;SDS011;43129;52.628;10.098;2023-07-24T14:32:53;5.65;;;4.25;;
57281;SDS011;43129;52.628;10.098;2023-07-24T14:35:19;6.20;;;4.50;;
57281;SDS011;43129;52.628;10.098;2023-07-24T14:37:44;5.10;;;4.32;;
57281;SDS011;43129;52.628;10.098;2023-07-24T14:40:12;4.63;;;3.47;;
57281;SDS011;43129;52.628;10.098;2023-07-24T14:42:38;5.47;;;4.20;;
57281;SDS011;43129;52.628;10.098;2023-07-24T14:45:04;6.25;;;4.90;;